チェンナイ の空港の天気 - METARとTAF

チェンナイ国際空港 ( VOMM / MAA ) - インド チェンナイ
飛行場実況気象(Metar)
観測時間01/23 09:30 IST (01/23 04:00 UTC)
風向・風速西北西 2m/s
視程4000m
天気現象煙霧
少しの雲 雲底高度 610m
気温27℃
湿度66%
気圧1013hPa
METARVOMM 230400Z 29003KT 4000 HZ FEW020 27/20 Q1013 NOSIG
過去の天気等 Google飛行場航空写真 Wunderground天気予報

過去48時間のMETAR

飛行場予報(TAF)
発表時間: 1/23 04:30 IST (1/22 23:00 UTC)
予報対象時間: 23日5時 IST ~ 24日11時 IST
風向・風速不定 1m/s
視程3,000m
天気現象もや
少しの雲 雲底高度 610m
23日5時 IST ~ 23日8時 IST に一時的に
視程1,500m
天気現象もや
23日10時 IST ~ 23日11時 IST に徐々に
風向・風速北東 5m/s
視程6,000m
23日22時 IST ~ 23日23時 IST に徐々に
風向・風速不定 1m/s
視程4,000m
天気現象煙霧
24日5時 IST ~ 24日8時 IST に一時的に
視程1,500m
天気現象もや
24日10時 IST ~ 24日11時 IST に徐々に
風向・風速北東 5m/s
視程6,000m
TAF VOMM 222300Z 2300/2406 VRB02KT 3000 BR FEW020
TEMPO 2300/2303 1500 BR
BECMG 2305/2306 04010KT 6000
BECMG 2317/2318 VRB02KT 4000 HZ
TEMPO 2400/2403 1500 BR
BECMG 2405/2406 04010KT 6000